Bahia Uno — ECFT — position and weather

sailwx.info

Track history (hours):
 
Tides and Currents Weather Stations Pressure Air Temp Water Temp Dewpoint Dewpoint Depression Visibility Wind Speed Wind Dir Waves Ship Positions

Bahia Uno

Last reported at 2016-Aug-23 20:19 UTC. Time now 2016-Aug-24 16:19 UTC.
Position N 36°08' W 005°26'.

Length 70 m; draft 5.5 m.

Type: Ship. MMSI: 224127820.

Date/timePositionNaut miles runAvg speedWind from/ knotsBaromVisibWave heightAir tempDewpointWater temp
2016-Aug-23 20:19N 36°08' W 005°26'0 0.0
2016-Aug-23 02:33N 36°08' W 005°26'0 0.0
2016-Aug-23 01:33N 36°08' W 005°26'0 0.0
2016-Aug-23 00:33N 36°08' W 005°26'0 0.0
2016-Aug-22 23:33N 36°08' W 005°26'1 0.1
2016-Aug-22 13:33N 36°08' W 005°25'0 0.0
2016-Aug-22 12:33N 36°08' W 005°25'0 0.0
2016-Aug-22 11:18N 36°08' W 005°25'1 0.7
2016-Aug-22 10:33N 36°08' W 005°26'0 0.0
2016-Aug-22 07:31N 36°08' W 005°26'0 0.0
2016-Aug-21 20:33N 36°08' W 005°26'0 0.0
2016-Aug-21 12:31N 36°08' W 005°26'3 0.8
2016-Aug-21 09:30N 36°06' W 005°25'0 0.2
2016-Aug-21 07:30N 36°06' W 005°25'2 2.4
2016-Aug-21 06:34N 36°08' W 005°26'0 0.0
2016-Aug-21 04:20N 36°08' W 005°26'0 0.0
2016-Aug-21 03:12N 36°08' W 005°26'0 0.0
2016-Aug-21 02:33N 36°08' W 005°26'0 0.0
2016-Aug-21 01:33N 36°08' W 005°26'0 0.0
2016-Aug-21 00:30N 36°08' W 005°26'0 0.0
2016-Aug-20 23:33N 36°08' W 005°26'0 0.0
2016-Aug-20 21:27N 36°08' W 005°26'0 0.0
2016-Aug-20 19:17N 36°08' W 005°26'0 0.0
2016-Aug-20 18:34N 36°08' W 005°26'0 0.0
2016-Aug-20 17:33N 36°08' W 005°26'0 0.0
2016-Aug-20 16:34N 36°08' W 005°26'0 0.0
2016-Aug-20 15:33N 36°08' W 005°26'0 0.0
2016-Aug-20 14:33N 36°08' W 005°26'0 0.0
2016-Aug-20 13:33N 36°08' W 005°26'0 0.0
2016-Aug-20 12:33N 36°08' W 005°26'0 0.0
2016-Aug-20 11:19N 36°08' W 005°26'2 0.9
2016-Aug-20 09:26N 36°09' W 005°24'1 1.2
2016-Aug-20 08:31N 36°10' W 005°23'0 0.1
2016-Aug-20 06:23N 36°10' W 005°23'2 0.5
2016-Aug-20 02:16N 36°09' W 005°26'3 2.4
2016-Aug-20 01:05N 36°06' W 005°25'0 0.0
2016-Aug-20 00:26N 36°06' W 005°25'0 0.1
2016-Aug-19 23:31N 36°06' W 005°25'0 0.0
2016-Aug-19 22:26N 36°06' W 005°25'2 2.3
2016-Aug-19 21:34N 36°08' W 005°25'1 0.4
2016-Aug-19 19:33N 36°09' W 005°26'4 4.4
2016-Aug-19 18:34N 36°05' W 005°25'0 0.1
2016-Aug-19 17:33N 36°05' W 005°24'0 0.0
2016-Aug-19 16:34N 36°05' W 005°24'0 0.1
2016-Aug-19 15:34N 36°05' W 005°24'2 1.5
2016-Aug-19 14:34N 36°06' W 005°25'4 4.0
2016-Aug-19 13:34N 36°10' W 005°24'0 0.1
2016-Aug-19 12:34N 36°10' W 005°24'0 0.1
2016-Aug-19 11:33N 36°10' W 005°24'0 0.0
2016-Aug-19 10:31N 36°10' W 005°24'3 2.7
2016-Aug-19 09:33N 36°08' W 005°26'0 0.0
2016-Aug-19 08:34N 36°08' W 005°26'0 0.0
2016-Aug-19 05:30N 36°08' W 005°26'0 0.0
2016-Aug-19 04:33N 36°08' W 005°26'0 0.0
2016-Aug-19 03:32N 36°08' W 005°26'0 0.0
2016-Aug-19 02:34N 36°08' W 005°26'0 0.0
2016-Aug-19 01:33N 36°08' W 005°26'0 0.0
2016-Aug-19 00:34N 36°08' W 005°26'0 0.0
2016-Aug-18 23:33N 36°08' W 005°26'0 0.0
2016-Aug-18 22:33N 36°08' W 005°26'0 0.0
2016-Aug-18 21:33N 36°08' W 005°26'0 0.0
2016-Aug-18 20:34N 36°08' W 005°26'0 0.0
2016-Aug-18 19:34N 36°08' W 005°26'0 0.0
2016-Aug-18 18:34N 36°08' W 005°26'0 0.0
2016-Aug-18 17:33N 36°08' W 005°26'0 0.0
2016-Aug-18 16:33N 36°08' W 005°26'0 0.0
2016-Aug-18 15:34N 36°08' W 005°26'0 0.0
2016-Aug-18 14:33N 36°08' W 005°26'1 0.2
2016-Aug-18 11:27N 36°09' W 005°26'4 4.1
2016-Aug-18 10:27N 36°05' W 005°25'0 0.1
2016-Aug-18 09:34N 36°05' W 005°25'0 0.0
2016-Aug-18 08:23N 36°05' W 005°25'0 0.5
2016-Aug-18 07:30N 36°05' W 005°24'4 3.7
2016-Aug-18 06:32N 36°09' W 005°26'0 0.0
2016-Aug-18 05:34N 36°09' W 005°26'0 0.0
2016-Aug-18 04:33N 36°09' W 005°26'0 0.0
2016-Aug-18 03:31N 36°09' W 005°26'0 0.0
2016-Aug-18 02:30N 36°09' W 005°26'0 0.0
2016-Aug-18 01:33N 36°09' W 005°26'0 0.0
2016-Aug-18 00:34N 36°09' W 005°26'0 0.0
2016-Aug-17 23:34N 36°09' W 005°26'0 0.0
2016-Aug-17 22:34N 36°09' W 005°26'0 0.0
2016-Aug-17 20:33N 36°09' W 005°26'0 0.0
2016-Aug-17 19:27N 36°09' W 005°26'1 0.3
2016-Aug-17 17:34N 36°08' W 005°26'0 0.0
2016-Aug-17 16:34N 36°08' W 005°26'0 0.0
2016-Aug-17 15:34N 36°08' W 005°26'0 0.0
2016-Aug-17 14:34N 36°08' W 005°26'0 0.0
2016-Aug-17 13:33N 36°08' W 005°26'0 0.0
2016-Aug-17 12:33N 36°08' W 005°26'0 0.0
2016-Aug-17 11:30N 36°08' W 005°26'2 2.5
2016-Aug-17 10:32N 36°06' W 005°24'0 0.3
2016-Aug-17 09:33N 36°06' W 005°24'0 0.1
2016-Aug-17 08:17N 36°06' W 005°24'0 0.0
2016-Aug-17 07:21N 36°05' W 005°24'4 0.4
2016-Aug-16 22:20N 36°09' W 005°26'3 1.1
2016-Aug-16 19:17N 36°06' W 005°24'0 0.1
2016-Aug-16 18:34N 36°06' W 005°24'3 0.2
2016-Aug-16 04:20N 36°08' W 005°26'0 0.0
2016-Aug-15 04:11N 36°08' W 005°26'0 0.0
2016-Aug-15 03:31N 36°08' W 005°26'0 0.0
2016-Aug-15 02:31N 36°08' W 005°26'0 0.0
2016-Aug-15 01:33N 36°08' W 005°26'0 0.0
2016-Aug-15 00:16N 36°08' W 005°26'0 0.0
2016-Aug-14 22:25N 36°08' W 005°26'0 0.0
2016-Aug-14 18:10N 36°08' W 005°26'0 0.0
2016-Aug-14 16:21N 36°08' W 005°26'1 0.7
2016-Aug-14 14:30N 36°09' W 005°25'1 0.1
2016-Aug-14 06:33N 36°10' W 005°25'2 0.6
2016-Aug-14 03:05N 36°08' W 005°26'  
Track history (hours):
 
Tides and Currents Weather Stations Pressure Air Temp Water Temp Dewpoint Dewpoint Depression Visibility Wind Speed Wind Dir Waves Ship Positions

Bahia Uno

Last reported at 2016-Aug-23 20:19 UTC. Time now 2016-Aug-24 16:19 UTC.
Position N 36°08' W 005°26'.

Length 70 m; draft 5.5 m.

Type: Ship. MMSI: 224127820.

Date/timePositionNaut miles runAvg speedWind from/ knotsBaromVisibWave heightAir tempDewpointWater temp
2016-Aug-23 20:19N 36°08' W 005°26'0 0.0
2016-Aug-23 02:33N 36°08' W 005°26'0 0.0
2016-Aug-23 01:33N 36°08' W 005°26'0 0.0
2016-Aug-23 00:33N 36°08' W 005°26'0 0.0
2016-Aug-22 23:33N 36°08' W 005°26'1 0.1
2016-Aug-22 13:33N 36°08' W 005°25'0 0.0
2016-Aug-22 12:33N 36°08' W 005°25'0 0.0
2016-Aug-22 11:18N 36°08' W 005°25'1 0.7
2016-Aug-22 10:33N 36°08' W 005°26'0 0.0
2016-Aug-22 07:31N 36°08' W 005°26'0 0.0
2016-Aug-21 20:33N 36°08' W 005°26'0 0.0
2016-Aug-21 12:31N 36°08' W 005°26'3 0.8
2016-Aug-21 09:30N 36°06' W 005°25'0 0.2
2016-Aug-21 07:30N 36°06' W 005°25'2 2.4
2016-Aug-21 06:34N 36°08' W 005°26'0 0.0
2016-Aug-21 04:20N 36°08' W 005°26'0 0.0
2016-Aug-21 03:12N 36°08' W 005°26'0 0.0
2016-Aug-21 02:33N 36°08' W 005°26'0 0.0
2016-Aug-21 01:33N 36°08' W 005°26'0 0.0
2016-Aug-21 00:30N 36°08' W 005°26'0 0.0
2016-Aug-20 23:33N 36°08' W 005°26'0 0.0
2016-Aug-20 21:27N 36°08' W 005°26'0 0.0
2016-Aug-20 19:17N 36°08' W 005°26'0 0.0
2016-Aug-20 18:34N 36°08' W 005°26'0 0.0
2016-Aug-20 17:33N 36°08' W 005°26'0 0.0
2016-Aug-20 16:34N 36°08' W 005°26'0 0.0
2016-Aug-20 15:33N 36°08' W 005°26'0 0.0
2016-Aug-20 14:33N 36°08' W 005°26'0 0.0
2016-Aug-20 13:33N 36°08' W 005°26'0 0.0
2016-Aug-20 12:33N 36°08' W 005°26'0 0.0
2016-Aug-20 11:19N 36°08' W 005°26'2 0.9
2016-Aug-20 09:26N 36°09' W 005°24'1 1.2
2016-Aug-20 08:31N 36°10' W 005°23'0 0.1
2016-Aug-20 06:23N 36°10' W 005°23'2 0.5
2016-Aug-20 02:16N 36°09' W 005°26'3 2.4
2016-Aug-20 01:05N 36°06' W 005°25'0 0.0
2016-Aug-20 00:26N 36°06' W 005°25'0 0.1
2016-Aug-19 23:31N 36°06' W 005°25'0 0.0
2016-Aug-19 22:26N 36°06' W 005°25'2 2.3
2016-Aug-19 21:34N 36°08' W 005°25'1 0.4
2016-Aug-19 19:33N 36°09' W 005°26'4 4.4
2016-Aug-19 18:34N 36°05' W 005°25'0 0.1
2016-Aug-19 17:33N 36°05' W 005°24'0 0.0
2016-Aug-19 16:34N 36°05' W 005°24'0 0.1
2016-Aug-19 15:34N 36°05' W 005°24'2 1.5
2016-Aug-19 14:34N 36°06' W 005°25'4 4.0
2016-Aug-19 13:34N 36°10' W 005°24'0 0.1
2016-Aug-19 12:34N 36°10' W 005°24'0 0.1
2016-Aug-19 11:33N 36°10' W 005°24'0 0.0
2016-Aug-19 10:31N 36°10' W 005°24'3 2.7
2016-Aug-19 09:33N 36°08' W 005°26'0 0.0
2016-Aug-19 08:34N 36°08' W 005°26'0 0.0
2016-Aug-19 05:30N 36°08' W 005°26'0 0.0
2016-Aug-19 04:33N 36°08' W 005°26'0 0.0
2016-Aug-19 03:32N 36°08' W 005°26'0 0.0
2016-Aug-19 02:34N 36°08' W 005°26'0 0.0
2016-Aug-19 01:33N 36°08' W 005°26'0 0.0
2016-Aug-19 00:34N 36°08' W 005°26'0 0.0
2016-Aug-18 23:33N 36°08' W 005°26'0 0.0
2016-Aug-18 22:33N 36°08' W 005°26'0 0.0
2016-Aug-18 21:33N 36°08' W 005°26'0 0.0
2016-Aug-18 20:34N 36°08' W 005°26'0 0.0
2016-Aug-18 19:34N 36°08' W 005°26'0 0.0
2016-Aug-18 18:34N 36°08' W 005°26'0 0.0
2016-Aug-18 17:33N 36°08' W 005°26'0 0.0
2016-Aug-18 16:33N 36°08' W 005°26'0 0.0
2016-Aug-18 15:34N 36°08' W 005°26'0 0.0
2016-Aug-18 14:33N 36°08' W 005°26'1 0.2
2016-Aug-18 11:27N 36°09' W 005°26'4 4.1
2016-Aug-18 10:27N 36°05' W 005°25'0 0.1
2016-Aug-18 09:34N 36°05' W 005°25'0 0.0
2016-Aug-18 08:23N 36°05' W 005°25'0 0.5
2016-Aug-18 07:30N 36°05' W 005°24'4 3.7
2016-Aug-18 06:32N 36°09' W 005°26'0 0.0
2016-Aug-18 05:34N 36°09' W 005°26'0 0.0
2016-Aug-18 04:33N 36°09' W 005°26'0 0.0
2016-Aug-18 03:31N 36°09' W 005°26'0 0.0
2016-Aug-18 02:30N 36°09' W 005°26'0 0.0
2016-Aug-18 01:33N 36°09' W 005°26'0 0.0
2016-Aug-18 00:34N 36°09' W 005°26'0 0.0
2016-Aug-17 23:34N 36°09' W 005°26'0 0.0
2016-Aug-17 22:34N 36°09' W 005°26'0 0.0
2016-Aug-17 20:33N 36°09' W 005°26'0 0.0
2016-Aug-17 19:27N 36°09' W 005°26'1 0.3
2016-Aug-17 17:34N 36°08' W 005°26'0 0.0
2016-Aug-17 16:34N 36°08' W 005°26'0 0.0
2016-Aug-17 15:34N 36°08' W 005°26'0 0.0
2016-Aug-17 14:34N 36°08' W 005°26'0 0.0
2016-Aug-17 13:33N 36°08' W 005°26'0 0.0
2016-Aug-17 12:33N 36°08' W 005°26'0 0.0
2016-Aug-17 11:30N 36°08' W 005°26'2 2.5
2016-Aug-17 10:32N 36°06' W 005°24'0 0.3
2016-Aug-17 09:33N 36°06' W 005°24'0 0.1
2016-Aug-17 08:17N 36°06' W 005°24'0 0.0
2016-Aug-17 07:21N 36°05' W 005°24'4 0.4
2016-Aug-16 22:20N 36°09' W 005°26'3 1.1
2016-Aug-16 19:17N 36°06' W 005°24'0 0.1
2016-Aug-16 18:34N 36°06' W 005°24'3 0.2
2016-Aug-16 04:20N 36°08' W 005°26'0 0.0
2016-Aug-15 04:11N 36°08' W 005°26'0 0.0
2016-Aug-15 03:31N 36°08' W 005°26'0 0.0
2016-Aug-15 02:31N 36°08' W 005°26'0 0.0
2016-Aug-15 01:33N 36°08' W 005°26'0 0.0
2016-Aug-15 00:16N 36°08' W 005°26'0 0.0
2016-Aug-14 22:25N 36°08' W 005°26'0 0.0
2016-Aug-14 18:10N 36°08' W 005°26'0 0.0
2016-Aug-14 16:21N 36°08' W 005°26'1 0.7
2016-Aug-14 14:30N 36°09' W 005°25'1 0.1
2016-Aug-14 06:33N 36°10' W 005°25'2 0.6
2016-Aug-14 03:05N 36°08' W 005°26'  

Dump ship's entire track history